createdAt,value
2016-12-22T00:00:22.632Z,964.76
2016-12-22T00:01:22.614Z,964.79
2016-12-22T00:02:22.596Z,964.81
2016-12-22T00:03:22.577Z,964.81
2016-12-22T00:04:22.558Z,964.79
2016-12-22T00:05:22.540Z,964.79
2016-12-22T00:06:22.521Z,964.78
2016-12-22T00:07:22.502Z,964.75
2016-12-22T00:08:22.484Z,964.78
2016-12-22T00:09:22.466Z,964.76
2016-12-22T00:10:22.449Z,964.76
2016-12-22T00:11:22.430Z,964.73
2016-12-22T00:12:22.409Z,964.78
2016-12-22T00:13:22.391Z,964.77
2016-12-22T00:14:22.373Z,964.76
2016-12-22T00:15:22.355Z,964.75
2016-12-22T00:16:22.338Z,964.77
2016-12-22T00:17:22.319Z,964.75
2016-12-22T00:18:22.300Z,964.73
2016-12-22T00:19:22.281Z,964.75
2016-12-22T00:20:22.264Z,964.77
2016-12-22T00:21:22.245Z,964.78
2016-12-22T00:22:22.226Z,964.75
2016-12-22T00:23:22.208Z,964.75
2016-12-22T00:24:22.191Z,964.8
2016-12-22T00:25:22.170Z,964.75
2016-12-22T00:26:22.152Z,964.75
2016-12-22T00:27:22.139Z,964.73
2016-12-22T00:28:22.116Z,964.71
2016-12-22T00:29:22.098Z,964.74
2016-12-22T00:30:22.078Z,964.77
2016-12-22T00:31:22.062Z,964.73
2016-12-22T00:32:22.174Z,964.74
2016-12-22T00:33:22.022Z,964.76
2016-12-22T00:34:22.010Z,964.73
2016-12-22T00:35:21.988Z,964.72
2016-12-22T00:36:21.968Z,964.71
2016-12-22T00:37:21.950Z,964.72
2016-12-22T00:38:21.932Z,964.76
2016-12-22T00:39:21.914Z,964.76
2016-12-22T00:40:21.894Z,964.81
2016-12-22T00:41:21.877Z,964.75
2016-12-22T00:42:21.858Z,964.82
2016-12-22T00:43:21.840Z,964.78
2016-12-22T00:44:21.821Z,964.73
2016-12-22T00:45:21.803Z,964.75
2016-12-22T00:46:21.785Z,964.72
2016-12-22T00:47:21.765Z,964.73
2016-12-22T00:48:21.748Z,964.73
2016-12-22T00:49:21.729Z,964.72
2016-12-22T00:50:21.711Z,964.75
2016-12-22T00:51:21.693Z,964.74
2016-12-22T00:52:21.674Z,964.78
2016-12-22T00:53:21.656Z,964.82
2016-12-22T00:54:21.638Z,964.79
2016-12-22T00:55:21.620Z,964.79
2016-12-22T00:56:21.602Z,964.8
2016-12-22T00:57:21.585Z,964.82
2016-12-22T00:58:21.566Z,964.82
2016-12-22T00:59:21.546Z,964.8
2016-12-22T01:00:21.529Z,964.83
2016-12-22T01:01:21.511Z,964.86
2016-12-22T01:02:21.491Z,964.88
2016-12-22T01:03:21.473Z,964.91
2016-12-22T01:04:21.455Z,964.89
2016-12-22T01:05:21.436Z,964.94
2016-12-22T01:06:21.419Z,964.87
2016-12-22T01:07:21.400Z,964.89
2016-12-22T01:08:21.382Z,964.9
2016-12-22T01:09:21.363Z,964.94
2016-12-22T01:10:21.345Z,964.9
2016-12-22T01:11:21.327Z,964.9
2016-12-22T01:12:21.308Z,964.9
2016-12-22T01:13:21.290Z,964.88
2016-12-22T01:14:21.271Z,964.92
2016-12-22T01:15:21.253Z,964.95
2016-12-22T01:16:21.234Z,964.93
2016-12-22T01:17:21.220Z,964.96
2016-12-22T01:18:21.198Z,964.92
2016-12-22T01:19:21.183Z,964.96
2016-12-22T01:20:21.161Z,964.92
2016-12-22T01:21:21.142Z,964.92
2016-12-22T01:22:21.125Z,964.92
2016-12-22T01:23:21.106Z,964.95
2016-12-22T01:24:21.087Z,964.92
2016-12-22T01:25:21.069Z,964.93
2016-12-22T01:26:21.050Z,964.98
2016-12-22T01:27:21.032Z,965
2016-12-22T01:28:21.013Z,964.96
2016-12-22T01:29:20.996Z,964.96
2016-12-22T01:30:20.977Z,964.92
2016-12-22T01:31:20.957Z,964.98
2016-12-22T01:32:20.940Z,964.95
2016-12-22T01:33:20.922Z,964.94
2016-12-22T01:34:20.902Z,964.94
2016-12-22T01:35:20.885Z,964.94
2016-12-22T01:36:20.867Z,964.89
2016-12-22T01:37:20.849Z,964.94
2016-12-22T01:38:20.830Z,964.96
2016-12-22T01:39:20.811Z,964.87
2016-12-22T01:40:20.792Z,964.88
2016-12-22T01:41:20.774Z,964.87
2016-12-22T01:42:20.754Z,964.84
2016-12-22T01:43:20.737Z,964.85
2016-12-22T01:44:20.719Z,964.85
2016-12-22T01:45:20.708Z,964.84
2016-12-22T01:46:20.682Z,964.79
2016-12-22T01:47:20.666Z,964.8
2016-12-22T01:48:20.645Z,964.82
2016-12-22T01:49:20.626Z,964.81
2016-12-22T01:50:20.608Z,964.81
2016-12-22T01:51:20.590Z,964.84
2016-12-22T01:52:20.571Z,964.8
2016-12-22T01:53:20.552Z,964.78
2016-12-22T01:54:20.534Z,964.81
2016-12-22T01:55:20.516Z,964.77
2016-12-22T01:56:20.497Z,964.72
2016-12-22T01:57:20.478Z,964.79
2016-12-22T01:58:20.460Z,964.8
2016-12-22T01:59:20.441Z,964.8
2016-12-22T02:00:20.422Z,964.74
2016-12-22T02:01:20.404Z,964.79
2016-12-22T02:02:20.386Z,964.78
2016-12-22T02:03:20.368Z,964.83
2016-12-22T02:04:20.349Z,964.85
2016-12-22T02:05:20.358Z,964.86
2016-12-22T02:06:20.311Z,964.85
2016-12-22T02:07:20.294Z,964.9
2016-12-22T02:08:20.274Z,964.87
2016-12-22T02:09:20.256Z,964.84
2016-12-22T02:10:20.334Z,964.89
2016-12-22T02:11:20.219Z,964.91
2016-12-22T02:12:20.200Z,964.94
2016-12-22T02:13:20.181Z,964.92
2016-12-22T02:14:20.164Z,964.92
2016-12-22T02:15:20.145Z,964.93
2016-12-22T02:16:20.126Z,964.87
2016-12-22T02:17:20.109Z,964.94
2016-12-22T02:18:20.091Z,964.9
2016-12-22T02:19:20.070Z,964.91
2016-12-22T02:20:20.053Z,964.88
2016-12-22T02:21:20.151Z,964.87
2016-12-22T02:22:20.114Z,964.87
2016-12-22T02:23:19.997Z,964.92
2016-12-22T02:24:19.979Z,964.93
2016-12-22T02:25:19.960Z,964.88
2016-12-22T02:26:19.942Z,964.93
2016-12-22T02:27:19.924Z,964.9
2016-12-22T02:28:19.905Z,964.93
2016-12-22T02:29:19.889Z,964.89
2016-12-22T02:30:19.869Z,964.86
2016-12-22T02:31:19.851Z,964.84
2016-12-22T02:32:19.832Z,964.88
2016-12-22T02:33:19.813Z,964.85
2016-12-22T02:34:19.795Z,964.84
2016-12-22T02:35:19.776Z,964.85
2016-12-22T02:36:19.758Z,964.85
2016-12-22T02:37:19.739Z,964.83
2016-12-22T02:38:19.720Z,964.9
2016-12-22T02:39:19.701Z,964.91
2016-12-22T02:40:19.683Z,964.91
2016-12-22T02:41:19.665Z,964.96
2016-12-22T02:42:19.645Z,964.97
2016-12-22T02:43:19.628Z,964.97
2016-12-22T02:44:19.609Z,964.95
2016-12-22T02:45:19.591Z,965
2016-12-22T02:46:19.572Z,964.95
2016-12-22T02:47:19.552Z,964.95
2016-12-22T02:48:19.535Z,964.96
2016-12-22T02:49:19.515Z,964.93
2016-12-22T02:50:19.497Z,964.87
2016-12-22T02:51:19.478Z,964.89
2016-12-22T02:52:19.460Z,964.85
2016-12-22T02:53:19.441Z,964.88
2016-12-22T02:54:19.423Z,964.85
2016-12-22T02:55:19.404Z,964.83
2016-12-22T02:56:19.386Z,964.85
2016-12-22T02:57:19.368Z,964.86
2016-12-22T02:58:19.349Z,964.86
2016-12-22T02:59:19.329Z,964.87
2016-12-22T03:00:19.311Z,964.82
2016-12-22T03:01:19.293Z,964.82
2016-12-22T03:02:19.274Z,964.82
2016-12-22T03:03:19.256Z,964.78
2016-12-22T03:04:19.237Z,964.79
2016-12-22T03:05:19.219Z,964.8
2016-12-22T03:06:19.199Z,964.83
2016-12-22T03:07:19.181Z,964.79
2016-12-22T03:08:19.162Z,964.77
2016-12-22T03:09:19.145Z,964.82
2016-12-22T03:10:19.125Z,964.84
2016-12-22T03:11:19.107Z,964.85
2016-12-22T03:12:19.087Z,964.83
2016-12-22T03:13:19.068Z,964.8
2016-12-22T03:14:19.050Z,964.83
2016-12-22T03:15:19.033Z,964.86
2016-12-22T03:16:19.014Z,964.84
2016-12-22T03:17:18.994Z,964.76
2016-12-22T03:18:18.977Z,964.79
2016-12-22T03:19:18.958Z,964.74
2016-12-22T03:20:18.939Z,964.74
2016-12-22T03:21:18.920Z,964.8
2016-12-22T03:22:18.902Z,964.8
2016-12-22T03:23:18.884Z,964.85
2016-12-22T03:24:18.863Z,964.86
2016-12-22T03:25:18.846Z,964.85
2016-12-22T03:26:18.828Z,964.87
2016-12-22T03:27:18.810Z,964.85
2016-12-22T03:28:18.791Z,964.86
2016-12-22T03:29:18.772Z,964.84
2016-12-22T03:30:18.754Z,964.88
2016-12-22T03:31:18.735Z,964.86
2016-12-22T03:32:18.716Z,964.84
2016-12-22T03:33:18.697Z,964.84
2016-12-22T03:34:18.680Z,964.81
2016-12-22T03:35:18.660Z,964.81
2016-12-22T03:36:18.641Z,964.8
2016-12-22T03:37:18.624Z,964.78
2016-12-22T03:38:18.604Z,964.81
2016-12-22T03:39:18.587Z,964.79
2016-12-22T03:40:18.568Z,964.8
2016-12-22T03:41:18.549Z,964.86
2016-12-22T03:42:18.544Z,964.77
2016-12-22T03:43:18.510Z,964.79
2016-12-22T03:44:18.492Z,964.82
2016-12-22T03:45:18.474Z,964.8
2016-12-22T03:46:18.458Z,964.78
2016-12-22T03:47:18.437Z,964.79
2016-12-22T03:48:18.417Z,964.8
2016-12-22T03:49:18.399Z,964.8
2016-12-22T03:50:18.381Z,964.78
2016-12-22T03:51:18.362Z,964.77
2016-12-22T03:52:18.344Z,964.74
2016-12-22T03:53:18.327Z,964.76
2016-12-22T03:54:18.307Z,964.77
2016-12-22T03:55:18.289Z,964.82
2016-12-22T03:56:18.269Z,964.77
2016-12-22T03:57:18.251Z,964.79
2016-12-22T03:58:18.232Z,964.83
2016-12-22T03:59:18.214Z,964.78
2016-12-22T04:00:18.196Z,964.78
2016-12-22T04:01:18.175Z,964.75
2016-12-22T04:02:18.158Z,964.75
2016-12-22T04:03:18.140Z,964.77
2016-12-22T04:04:18.121Z,964.72
2016-12-22T04:05:18.103Z,964.75
2016-12-22T04:06:18.085Z,964.75
2016-12-22T04:07:18.067Z,964.74
2016-12-22T04:08:18.047Z,964.71
2016-12-22T04:09:18.029Z,964.74
2016-12-22T04:10:18.011Z,964.64
2016-12-22T04:11:17.993Z,964.69
2016-12-22T04:12:17.973Z,964.68
2016-12-22T04:13:17.957Z,964.68
2016-12-22T04:14:17.937Z,964.7
2016-12-22T04:15:17.916Z,964.76
2016-12-22T04:16:17.898Z,964.77
2016-12-22T04:17:17.881Z,964.74
2016-12-22T04:18:17.862Z,964.72
2016-12-22T04:19:17.843Z,964.7
2016-12-22T04:20:17.825Z,964.75
2016-12-22T04:21:17.806Z,964.74
2016-12-22T04:22:17.788Z,964.7
2016-12-22T04:23:17.769Z,964.7
2016-12-22T04:24:17.751Z,964.7
2016-12-22T04:25:17.731Z,964.7
2016-12-22T04:26:17.713Z,964.74
2016-12-22T04:27:17.695Z,964.69
2016-12-22T04:28:17.677Z,964.63
2016-12-22T04:29:17.658Z,964.72
2016-12-22T04:30:17.638Z,964.65
2016-12-22T04:31:17.621Z,964.64
2016-12-22T04:32:17.602Z,964.61
2016-12-22T04:33:17.584Z,964.62
2016-12-22T04:34:17.565Z,964.59
2016-12-22T04:35:17.548Z,964.57
2016-12-22T04:36:17.527Z,964.57
2016-12-22T04:37:17.509Z,964.56
2016-12-22T04:38:17.491Z,964.55
2016-12-22T04:39:17.472Z,964.56
2016-12-22T04:40:17.453Z,964.51
2016-12-22T04:41:17.435Z,964.56
2016-12-22T04:42:17.416Z,964.49
2016-12-22T04:43:17.398Z,964.48
2016-12-22T04:44:17.381Z,964.5
2016-12-22T04:45:17.361Z,964.51
2016-12-22T04:46:17.341Z,964.37
2016-12-22T04:47:17.324Z,964.52
2016-12-22T04:48:17.305Z,964.55
2016-12-22T04:49:17.287Z,964.6
2016-12-22T04:50:17.267Z,964.58
2016-12-22T04:51:17.250Z,964.62
2016-12-22T04:52:17.231Z,964.63
2016-12-22T04:53:17.213Z,964.67
2016-12-22T04:54:17.194Z,964.65
2016-12-22T04:55:17.176Z,964.68
2016-12-22T04:56:17.156Z,964.7
2016-12-22T04:57:17.138Z,964.67
2016-12-22T04:58:17.120Z,964.69
2016-12-22T04:59:17.101Z,964.66
2016-12-22T05:00:17.081Z,964.67
2016-12-22T05:01:17.065Z,964.72
2016-12-22T05:02:17.046Z,964.65
2016-12-22T05:03:17.026Z,964.69
2016-12-22T05:04:17.008Z,964.7
2016-12-22T05:05:16.991Z,964.67
2016-12-22T05:06:16.972Z,964.69
2016-12-22T05:07:16.953Z,964.75
2016-12-22T05:08:16.934Z,964.76
2016-12-22T05:09:16.915Z,964.72
2016-12-22T05:10:16.897Z,964.76
2016-12-22T05:11:16.879Z,964.72
2016-12-22T05:12:16.861Z,964.73
2016-12-22T05:13:16.841Z,964.72
2016-12-22T05:14:16.822Z,964.77
2016-12-22T05:15:16.804Z,964.77
2016-12-22T05:16:16.786Z,964.78
2016-12-22T05:17:16.767Z,964.8
2016-12-22T05:18:16.748Z,964.85
2016-12-22T05:19:16.731Z,964.84
2016-12-22T05:20:16.712Z,964.82
2016-12-22T05:21:16.693Z,964.82
2016-12-22T05:22:16.675Z,964.82
2016-12-22T05:23:16.656Z,964.87
2016-12-22T05:24:16.638Z,964.86
2016-12-22T05:25:16.619Z,964.83
2016-12-22T05:26:16.600Z,964.79
2016-12-22T05:27:16.581Z,964.85
2016-12-22T05:28:16.564Z,964.84
2016-12-22T05:29:16.544Z,964.81
2016-12-22T05:30:16.526Z,964.83
2016-12-22T05:31:16.507Z,964.82
2016-12-22T05:32:16.486Z,964.83
2016-12-22T05:33:16.470Z,964.79
2016-12-22T05:34:16.451Z,964.84
2016-12-22T05:35:16.432Z,964.78
2016-12-22T05:36:16.413Z,964.77
2016-12-22T05:37:16.395Z,964.77
2016-12-22T05:38:16.376Z,964.73
2016-12-22T05:39:16.358Z,964.71
2016-12-22T05:40:16.339Z,964.66
2016-12-22T05:41:16.321Z,964.66
2016-12-22T05:42:16.303Z,964.62
2016-12-22T05:43:16.282Z,964.65
2016-12-22T05:44:16.264Z,964.67
2016-12-22T05:45:16.245Z,964.64
2016-12-22T05:46:16.228Z,964.67
2016-12-22T05:47:16.209Z,964.68
2016-12-22T05:48:16.191Z,964.65
2016-12-22T05:49:16.171Z,964.7
2016-12-22T05:50:16.153Z,964.69
2016-12-22T05:51:16.134Z,964.69
2016-12-22T05:52:16.115Z,964.69
2016-12-22T05:53:16.098Z,964.72
2016-12-22T05:54:16.078Z,964.68
2016-12-22T05:55:16.059Z,964.7
2016-12-22T05:56:16.041Z,964.72
2016-12-22T05:57:16.022Z,964.78
2016-12-22T05:58:16.002Z,964.74
2016-12-22T05:59:15.984Z,964.77
2016-12-22T06:00:15.967Z,964.75
2016-12-22T06:01:15.947Z,964.75
2016-12-22T06:02:15.927Z,964.73
2016-12-22T06:03:15.911Z,964.72
2016-12-22T06:04:15.893Z,964.71
2016-12-22T06:05:15.871Z,964.72
2016-12-22T06:06:15.852Z,964.77
2016-12-22T06:07:15.834Z,964.76
2016-12-22T06:08:15.816Z,964.73
2016-12-22T06:09:15.796Z,964.77
2016-12-22T06:10:15.777Z,964.79
2016-12-22T06:11:15.760Z,964.8
2016-12-22T06:12:15.740Z,964.78
2016-12-22T06:13:15.721Z,964.76
2016-12-22T06:14:15.703Z,964.81
2016-12-22T06:15:15.684Z,964.74
2016-12-22T06:16:15.664Z,964.78
2016-12-22T06:17:15.646Z,964.78
2016-12-22T06:18:15.628Z,964.78
2016-12-22T06:19:15.609Z,964.8
2016-12-22T06:20:15.590Z,964.79
2016-12-22T06:21:15.572Z,964.85
2016-12-22T06:22:15.553Z,964.84
2016-12-22T06:23:15.532Z,964.8
2016-12-22T06:24:15.514Z,964.86
2016-12-22T06:25:15.495Z,964.87
2016-12-22T06:26:15.476Z,964.84
2016-12-22T06:27:15.458Z,964.9
2016-12-22T06:28:15.439Z,964.93
2016-12-22T06:29:15.420Z,964.9
2016-12-22T06:30:15.403Z,964.95
2016-12-22T06:31:15.383Z,965.03
2016-12-22T06:32:15.367Z,965.03
2016-12-22T06:33:15.345Z,964.96
2016-12-22T06:34:15.325Z,965.03
2016-12-22T06:35:15.307Z,964.98
2016-12-22T06:36:15.292Z,965.01
2016-12-22T06:37:15.271Z,965
2016-12-22T06:38:15.251Z,965
2016-12-22T06:39:15.232Z,964.99
2016-12-22T06:40:15.214Z,964.98
2016-12-22T06:41:15.194Z,965.02
2016-12-22T06:42:15.175Z,965.02
2016-12-22T06:43:15.157Z,965.02
2016-12-22T06:44:15.138Z,965.05
2016-12-22T06:45:15.119Z,965.07
2016-12-22T06:46:15.099Z,965.08
2016-12-22T06:47:15.080Z,965.04
2016-12-22T06:48:15.063Z,965.08
2016-12-22T06:49:15.043Z,965.05
2016-12-22T06:50:15.025Z,965.02
2016-12-22T06:51:15.006Z,965.04
2016-12-22T06:52:14.991Z,965.03
2016-12-22T06:53:14.967Z,965.08
2016-12-22T06:54:14.949Z,965.12
2016-12-22T06:55:14.931Z,965.14
2016-12-22T06:56:14.911Z,965.12
2016-12-22T06:57:14.892Z,965.12
2016-12-22T06:58:14.877Z,965.15
2016-12-22T06:59:14.856Z,965.09
2016-12-22T07:00:14.835Z,965.09
2016-12-22T07:01:14.817Z,965.12
2016-12-22T07:02:14.799Z,965.04
2016-12-22T07:03:14.779Z,965.12
2016-12-22T07:04:14.760Z,965.1
2016-12-22T07:05:14.741Z,965.08
2016-12-22T07:06:14.722Z,965.13
2016-12-22T07:07:14.702Z,965.12
2016-12-22T07:08:14.685Z,965.15
2016-12-22T07:09:14.666Z,965.13
2016-12-22T07:10:14.648Z,965.18
2016-12-22T07:11:14.627Z,965.2
2016-12-22T07:12:14.609Z,965.25
2016-12-22T07:13:14.591Z,965.26
2016-12-22T07:14:14.572Z,965.29
2016-12-22T07:15:14.554Z,965.25
2016-12-22T07:16:14.535Z,965.32
2016-12-22T07:17:14.516Z,965.29
2016-12-22T07:18:14.497Z,965.22
2016-12-22T07:19:14.477Z,965.22
2016-12-22T07:20:14.457Z,965.22
2016-12-22T07:21:14.441Z,965.18
2016-12-22T07:22:14.420Z,965.21
2016-12-22T07:23:14.401Z,965.22
2016-12-22T07:24:14.385Z,965.23
2016-12-22T07:25:14.364Z,965.19
2016-12-22T07:26:14.345Z,965.17
2016-12-22T07:27:14.325Z,965.2
2016-12-22T07:28:14.307Z,965.17
2016-12-22T07:29:14.288Z,965.23
2016-12-22T07:30:14.268Z,965.22
2016-12-22T07:31:14.301Z,965.17
2016-12-22T07:32:14.232Z,965.21
2016-12-22T07:33:14.212Z,965.22
2016-12-22T07:34:14.195Z,965.19
2016-12-22T07:35:14.175Z,965.23
2016-12-22T07:36:14.155Z,965.28
2016-12-22T07:37:14.136Z,965.32
2016-12-22T07:38:14.118Z,965.38
2016-12-22T07:39:14.099Z,965.38
2016-12-22T07:40:14.079Z,965.45
2016-12-22T07:41:14.060Z,965.41
2016-12-22T07:42:14.042Z,965.45
2016-12-22T07:43:14.023Z,965.41
2016-12-22T07:44:14.003Z,965.45
2016-12-22T07:45:13.985Z,965.43
2016-12-22T07:46:13.966Z,965.41
2016-12-22T07:47:13.947Z,965.44
2016-12-22T07:48:13.927Z,965.41
2016-12-22T07:49:13.909Z,965.38
2016-12-22T07:50:13.890Z,965.35
2016-12-22T07:51:13.870Z,965.37
2016-12-22T07:52:13.850Z,965.44
2016-12-22T07:53:13.831Z,965.48
2016-12-22T07:54:13.816Z,965.51
2016-12-22T07:55:13.795Z,965.55
2016-12-22T07:56:13.775Z,965.52
2016-12-22T07:57:13.757Z,965.56
2016-12-22T07:58:13.737Z,965.46
2016-12-22T07:59:13.719Z,965.42
2016-12-22T08:00:13.700Z,965.44
2016-12-22T08:01:13.681Z,965.39
2016-12-22T08:02:13.661Z,965.46
2016-12-22T08:03:13.643Z,965.48
2016-12-22T08:04:13.624Z,965.5
2016-12-22T08:05:13.606Z,965.5
2016-12-22T08:06:13.586Z,965.51
2016-12-22T08:07:13.566Z,965.54
2016-12-22T08:08:13.547Z,965.5
2016-12-22T08:09:13.529Z,965.53
2016-12-22T08:10:13.511Z,965.55
2016-12-22T08:11:13.490Z,965.56
2016-12-22T08:12:13.474Z,965.57
2016-12-22T08:13:13.454Z,965.6
2016-12-22T08:14:13.441Z,965.63
2016-12-22T08:15:13.417Z,965.66
2016-12-22T08:16:13.399Z,965.66
2016-12-22T08:17:13.378Z,965.71
2016-12-22T08:18:13.359Z,965.65
2016-12-22T08:19:13.341Z,965.71
2016-12-22T08:20:13.320Z,965.7
2016-12-22T08:21:13.311Z,965.74
2016-12-22T08:22:13.285Z,965.75
2016-12-22T08:23:13.266Z,965.79
2016-12-22T08:24:13.246Z,965.8
2016-12-22T08:25:13.228Z,965.81
2016-12-22T08:26:13.209Z,965.83
2016-12-22T08:27:13.191Z,965.81
2016-12-22T08:28:13.170Z,965.85
2016-12-22T08:29:13.153Z,965.85
2016-12-22T08:30:13.134Z,965.85
2016-12-22T08:31:13.115Z,965.87
2016-12-22T08:32:13.096Z,965.85
2016-12-22T08:33:13.077Z,965.87
2016-12-22T08:34:13.059Z,965.88
2016-12-22T08:35:13.039Z,965.9
2016-12-22T08:36:13.020Z,965.9
2016-12-22T08:37:13.002Z,965.9
2016-12-22T08:38:12.983Z,965.93
2016-12-22T08:39:12.964Z,965.92
2016-12-22T08:40:12.946Z,965.92
2016-12-22T08:41:12.928Z,965.91
2016-12-22T08:42:12.908Z,965.91
2016-12-22T08:43:12.891Z,965.88
2016-12-22T08:44:12.873Z,965.85
2016-12-22T08:45:12.853Z,965.84
2016-12-22T08:46:12.834Z,965.84
2016-12-22T08:47:12.816Z,965.83
2016-12-22T08:48:12.797Z,965.82
2016-12-22T08:49:12.780Z,965.8
2016-12-22T08:50:12.762Z,965.83
2016-12-22T08:51:12.743Z,965.83
2016-12-22T08:52:12.724Z,965.84
2016-12-22T08:53:12.706Z,965.82
2016-12-22T08:54:12.689Z,965.85
2016-12-22T08:55:12.670Z,965.8
2016-12-22T08:56:12.652Z,965.8
2016-12-22T08:57:12.633Z,965.8
2016-12-22T08:58:12.615Z,965.73
2016-12-22T08:59:12.598Z,965.75
2016-12-22T09:00:12.579Z,965.72
2016-12-22T09:01:12.561Z,965.71
2016-12-22T09:02:12.541Z,965.7
2016-12-22T09:03:12.524Z,965.72
2016-12-22T09:04:12.506Z,965.62
2016-12-22T09:05:12.488Z,965.67
2016-12-22T09:06:12.471Z,965.66
2016-12-22T09:07:12.452Z,965.6
2016-12-22T09:08:12.432Z,965.62
2016-12-22T09:09:12.415Z,965.7
2016-12-22T09:10:12.397Z,965.77
2016-12-22T09:11:12.378Z,965.7
2016-12-22T09:12:12.361Z,965.73
2016-12-22T09:13:12.342Z,965.74
2016-12-22T09:14:12.323Z,965.7
2016-12-22T09:15:12.305Z,965.68
2016-12-22T09:16:12.288Z,965.68
2016-12-22T09:17:12.269Z,965.68
2016-12-22T09:19:21.367Z,965.78
2016-12-22T09:22:18.410Z,965.67
2016-12-22T09:23:17.831Z,965.72
2016-12-22T09:24:17.812Z,965.73
2016-12-22T09:25:17.795Z,965.66
2016-12-22T09:26:17.775Z,965.69
2016-12-22T09:27:17.757Z,965.66
2016-12-22T09:28:17.739Z,965.71
2016-12-22T09:29:17.720Z,965.71
2016-12-22T09:30:17.703Z,965.69
2016-12-22T09:31:17.685Z,965.72
2016-12-22T09:32:17.667Z,965.67
2016-12-22T09:33:17.647Z,965.66
2016-12-22T09:34:17.629Z,965.7
2016-12-22T09:35:17.613Z,965.68
2016-12-22T09:36:17.595Z,965.68
2016-12-22T09:37:17.575Z,965.67
2016-12-22T09:38:17.557Z,965.67
2016-12-22T09:39:17.539Z,965.68
2016-12-22T09:40:17.521Z,965.63
2016-12-22T09:41:17.502Z,965.61
2016-12-22T09:42:17.484Z,965.6
2016-12-22T09:43:17.466Z,965.61
2016-12-22T09:44:17.448Z,965.6
2016-12-22T09:45:17.429Z,965.58
2016-12-22T09:46:17.411Z,965.62
2016-12-22T09:47:17.394Z,965.6
2016-12-22T09:48:17.375Z,965.6
2016-12-22T09:49:17.356Z,965.61
2016-12-22T09:50:17.339Z,965.61
2016-12-22T09:51:17.320Z,965.53
2016-12-22T09:52:17.302Z,965.59
2016-12-22T09:53:17.284Z,965.54
2016-12-22T09:54:17.266Z,965.58
2016-12-22T09:55:17.248Z,965.57
2016-12-22T09:56:17.230Z,965.57
2016-12-22T09:57:17.212Z,965.58
2016-12-22T09:58:17.193Z,965.6
2016-12-22T09:59:17.174Z,965.62
2016-12-22T10:00:17.156Z,965.63
2016-12-22T10:01:17.139Z,965.62
2016-12-22T10:02:17.121Z,965.57
2016-12-22T10:03:17.102Z,965.55
2016-12-22T10:04:17.085Z,965.52
2016-12-22T10:05:17.068Z,965.53
2016-12-22T10:06:17.050Z,965.48
2016-12-22T10:07:17.030Z,965.54
2016-12-22T10:08:17.013Z,965.51
2016-12-22T10:09:16.995Z,965.55
2016-12-22T10:10:16.976Z,965.56
2016-12-22T10:11:16.959Z,965.57
2016-12-22T10:12:16.941Z,965.49
2016-12-22T10:13:16.922Z,965.49
2016-12-22T10:14:16.904Z,965.52
2016-12-22T10:15:16.888Z,965.49
2016-12-22T10:16:16.868Z,965.53
2016-12-22T10:17:16.851Z,965.49
2016-12-22T10:18:16.848Z,965.53
2016-12-22T10:19:16.815Z,965.58
2016-12-22T10:20:16.798Z,965.62
2016-12-22T10:21:16.780Z,965.52
2016-12-22T10:22:16.762Z,965.53
2016-12-22T10:23:16.744Z,965.53
2016-12-22T10:24:16.727Z,965.52
2016-12-22T10:25:16.708Z,965.51
2016-12-22T10:26:16.691Z,965.57
2016-12-22T10:27:16.674Z,965.58
2016-12-22T10:28:16.665Z,965.6
2016-12-22T10:29:16.638Z,965.62
2016-12-22T10:30:16.621Z,965.61
2016-12-22T10:31:16.603Z,965.62
2016-12-22T10:32:16.585Z,965.59
2016-12-22T10:33:16.568Z,965.55
2016-12-22T10:34:16.551Z,965.51
2016-12-22T10:35:16.535Z,965.5
2016-12-22T10:36:16.515Z,965.49
2016-12-22T10:37:16.498Z,965.52
2016-12-22T10:38:16.482Z,965.46
2016-12-22T10:39:16.462Z,965.45
2016-12-22T10:40:16.445Z,965.49
2016-12-22T10:41:16.429Z,965.5
2016-12-22T10:42:16.411Z,965.46
2016-12-22T10:43:16.393Z,965.49
2016-12-22T10:44:16.376Z,965.43
2016-12-22T10:45:16.359Z,965.48
2016-12-22T10:46:16.341Z,965.44
2016-12-22T10:47:16.323Z,965.43
2016-12-22T10:48:16.307Z,965.43
2016-12-22T10:49:16.290Z,965.44
2016-12-22T10:50:16.272Z,965.48
2016-12-22T10:51:16.256Z,965.45
2016-12-22T10:52:16.239Z,965.39
2016-12-22T10:53:16.221Z,965.41
2016-12-22T10:54:16.204Z,965.34
2016-12-22T10:55:16.186Z,965.37
2016-12-22T10:56:16.169Z,965.31
2016-12-22T10:57:16.156Z,965.37
2016-12-22T10:58:16.136Z,965.3
2016-12-22T10:59:16.118Z,965.3
2016-12-22T11:00:16.103Z,965.27
2016-12-22T11:01:16.084Z,965.24
2016-12-22T11:02:16.068Z,965.22
2016-12-22T11:03:16.051Z,965.16
2016-12-22T11:04:16.037Z,965.18
2016-12-22T11:05:16.017Z,965.2
2016-12-22T11:06:15.999Z,965.23
2016-12-22T11:07:15.984Z,965.23
2016-12-22T11:08:15.971Z,965.17
2016-12-22T11:09:15.948Z,965.12
2016-12-22T11:10:15.933Z,965.15
2016-12-22T11:11:15.918Z,965.09
2016-12-22T11:12:15.899Z,965.11
2016-12-22T11:13:15.885Z,965.13
2016-12-22T11:14:15.867Z,965.11
2016-12-22T11:15:15.851Z,965.19
2016-12-22T11:16:15.834Z,965.17
2016-12-22T11:17:15.818Z,965.13
2016-12-22T11:18:15.802Z,965.16
2016-12-22T11:19:15.784Z,965.15
2016-12-22T11:20:15.768Z,965.16
2016-12-22T11:21:15.752Z,965.17
2016-12-22T11:22:15.736Z,965.14
2016-12-22T11:23:15.717Z,965.16
2016-12-22T11:24:15.702Z,965.17
2016-12-22T11:25:15.687Z,965.16
2016-12-22T11:26:15.668Z,965.17
2016-12-22T11:27:15.654Z,965.17
2016-12-22T11:28:15.639Z,965.18
2016-12-22T11:29:15.621Z,965.19
2016-12-22T11:30:15.604Z,965.23
2016-12-22T11:31:15.589Z,965.19
2016-12-22T11:32:15.572Z,965.27
2016-12-22T11:33:15.557Z,965.27
2016-12-22T11:34:15.541Z,965.25
2016-12-22T11:35:15.527Z,965.26
2016-12-22T11:36:15.509Z,965.27
2016-12-22T11:37:15.493Z,965.29
2016-12-22T11:38:15.476Z,965.26
2016-12-22T11:39:15.461Z,965.3
2016-12-22T11:40:15.444Z,965.28
2016-12-22T11:41:15.430Z,965.3
2016-12-22T11:42:15.412Z,965.33
2016-12-22T11:43:15.398Z,965.34
2016-12-22T11:44:15.381Z,965.36
2016-12-22T11:45:15.365Z,965.35
2016-12-22T11:46:15.349Z,965.34
2016-12-22T11:47:15.334Z,965.38
2016-12-22T11:48:15.318Z,965.38
2016-12-22T11:49:15.302Z,965.41
2016-12-22T11:50:15.285Z,965.42
2016-12-22T11:51:15.273Z,965.48
2016-12-22T11:52:15.255Z,965.52
2016-12-22T11:53:15.239Z,965.53
2016-12-22T11:54:15.223Z,965.52
2016-12-22T11:55:15.207Z,965.59
2016-12-22T11:56:15.191Z,965.54
2016-12-22T11:57:15.175Z,965.57
2016-12-22T11:58:15.159Z,965.6
2016-12-22T11:59:15.144Z,965.6
2016-12-22T12:00:15.127Z,965.65
2016-12-22T12:01:15.113Z,965.6
2016-12-22T12:02:15.097Z,965.68
2016-12-22T12:03:15.082Z,965.63
2016-12-22T12:04:15.065Z,965.65
2016-12-22T12:05:15.050Z,965.68
2016-12-22T12:06:15.033Z,965.64
2016-12-22T12:07:15.018Z,965.68
2016-12-22T12:08:15.002Z,965.66
2016-12-22T12:09:14.987Z,965.68
2016-12-22T12:10:14.970Z,965.64
2016-12-22T12:11:14.954Z,965.62
2016-12-22T12:12:14.940Z,965.63
2016-12-22T12:13:14.923Z,965.66
2016-12-22T12:14:14.909Z,965.63
2016-12-22T12:15:14.892Z,965.55
2016-12-22T12:16:14.876Z,965.56
2016-12-22T12:17:14.860Z,965.56
2016-12-22T12:18:14.843Z,965.61
2016-12-22T12:19:14.828Z,965.58
2016-12-22T12:20:14.813Z,965.59
2016-12-22T12:21:14.797Z,965.56
2016-12-22T12:22:14.782Z,965.58
2016-12-22T12:23:14.766Z,965.57
2016-12-22T12:24:14.751Z,965.59
2016-12-22T12:25:14.741Z,965.62
2016-12-22T12:26:14.719Z,965.61
2016-12-22T12:27:14.706Z,965.66
2016-12-22T12:28:14.687Z,965.67
2016-12-22T12:29:14.671Z,965.62
2016-12-22T12:30:14.655Z,965.62
2016-12-22T12:31:14.641Z,965.59
2016-12-22T12:32:14.624Z,965.61
2016-12-22T12:33:14.608Z,965.65
2016-12-22T12:34:14.593Z,965.6